Time;durP1;ratioP1;P1;durP2;ratioP2;P2;SDS_P1;SDS_P2;PMS_P1;PMS_P2;Temp;Humidity;BMP_temperature;BMP_pressure;BME280_temperature;BME280_humidity;BME280_pressure;Samples;Min_cycle;Max_cycle;Signal;HPM_P1;HPM_P2
2022/07/04 00:02:09;;;;;;;5.18;4.45;;;;;;;22.49;53.98;95696.84;5005482;28;20095;-82
2022/07/04 00:04:35;;;;;;;7.97;4.78;;;;;;;22.39;53.91;95696.69;4989252;28;20022;-82
2022/07/04 00:07:00;;;;;;;8.23;4.53;;;;;;;22.32;52.97;95696.84;5006186;28;20059;-82
2022/07/04 00:09:25;;;;;;;6.68;4.95;;;;;;;22.25;52.95;95697.00;5006146;28;20028;-82
2022/07/04 00:11:51;;;;;;;5.53;4.80;;;;;;;22.24;53.29;95700.81;5007825;28;20032;-82
2022/07/04 00:14:16;;;;;;;9.85;4.40;;;;;;;22.17;53.23;95695.50;5004406;28;20456;-81
2022/07/04 00:16:42;;;;;;;9.45;4.50;;;;;;;22.13;53.75;95697.06;5006399;28;20455;-81
2022/07/04 00:19:07;;;;;;;6.30;4.35;;;;;;;22.19;53.67;95703.44;5004812;28;20492;-81
2022/07/04 00:21:33;;;;;;;6.90;4.70;;;;;;;22.23;52.96;95686.31;5005102;28;20482;-81
2022/07/04 00:23:58;;;;;;;5.82;4.28;;;;;;;22.23;52.34;95693.69;5006962;28;20496;-81
2022/07/04 00:26:24;;;;;;;5.85;3.97;;;;;;;22.13;52.80;95685.31;5004623;28;20022;-81
2022/07/04 00:28:49;;;;;;;10.13;4.53;;;;;;;22.16;52.74;95679.34;5006236;28;20026;-83
2022/07/04 00:31:15;;;;;;;5.68;4.28;;;;;;;22.17;52.62;95681.00;5004267;28;20018;-83
2022/07/04 00:33:40;;;;;;;6.30;4.22;;;;;;;22.21;52.10;95680.28;4989663;28;20030;-82
2022/07/04 00:36:06;;;;;;;5.30;4.38;;;;;;;22.20;51.68;95672.31;5004161;28;20104;-83
2022/07/04 00:38:32;;;;;;;7.80;4.63;;;;;;;22.23;51.37;95674.59;4989904;28;20050;-82
2022/07/04 00:40:58;;;;;;;8.90;4.82;;;;;;;22.14;51.24;95667.84;5006269;28;20078;-82
2022/07/04 00:43:24;;;;;;;7.65;4.38;;;;;;;22.08;51.39;95670.50;5005096;28;20491;-82
2022/07/04 00:45:50;;;;;;;6.13;4.32;;;;;;;22.05;51.91;95670.16;4973384;28;20109;-82
2022/07/04 00:48:15;;;;;;;5.60;4.28;;;;;;;22.05;51.30;95668.25;4987993;28;20118;-81
2022/07/04 00:50:42;;;;;;;8.75;4.13;;;;;;;22.03;51.40;95664.09;5006091;28;20593;-82
2022/07/04 00:53:08;;;;;;;5.85;3.85;;;;;;;22.08;50.80;95670.50;4987805;28;20037;-81
2022/07/04 00:55:33;;;;;;;6.95;3.75;;;;;;;22.05;50.97;95673.72;5006056;28;20026;-81
2022/07/04 00:57:59;;;;;;;6.32;3.85;;;;;;;22.10;50.86;95673.78;5004772;28;20034;-82
2022/07/04 01:00:24;;;;;;;6.25;4.00;;;;;;;22.12;50.89;95664.53;5005119;28;20555;-81
2022/07/04 01:02:49;;;;;;;5.57;3.88;;;;;;;22.08;50.50;95673.22;5005392;28;20244;-81
2022/07/04 01:05:15;;;;;;;7.13;3.80;;;;;;;22.02;50.98;95667.91;5005426;28;20475;-83
2022/07/04 01:07:41;;;;;;;7.78;3.85;;;;;;;21.96;50.83;95677.88;5005621;28;20026;-81
2022/07/04 01:10:07;;;;;;;5.68;3.50;;;;;;;21.98;50.93;95676.59;5004154;28;20076;-81
2022/07/04 01:12:32;;;;;;;6.30;4.13;;;;;;;21.91;50.85;95675.88;5005611;28;20435;-82
2022/07/04 01:14:58;;;;;;;6.40;3.63;;;;;;;21.85;51.09;95676.88;5005373;28;20030;-80
2022/07/04 01:17:23;;;;;;;5.22;3.80;;;;;;;21.78;50.87;95677.00;5005556;28;20022;-81
2022/07/04 01:19:49;;;;;;;5.15;4.10;;;;;;;21.77;50.83;95672.63;5004494;28;20088;-81
2022/07/04 01:22:15;;;;;;;5.15;3.80;;;;;;;21.72;51.46;95672.47;5005020;28;20033;-81
2022/07/04 01:24:40;;;;;;;8.88;3.92;;;;;;;21.73;51.10;95674.16;5005289;28;20038;-81
2022/07/04 01:27:06;;;;;;;5.47;3.75;;;;;;;21.69;51.35;95673.81;5004268;28;20052;-82
2022/07/04 01:29:32;;;;;;;5.50;3.65;;;;;;;21.59;51.41;95673.59;4988984;28;20034;-83
2022/07/04 01:32:05;;;;;;;7.20;3.92;;;;;;;21.62;51.17;95664.91;5020667;28;20037;-81
2022/07/04 01:34:30;;;;;;;8.90;3.70;;;;;;;21.63;51.36;95665.75;5009006;28;20038;-81
2022/07/04 01:36:56;;;;;;;8.00;3.92;;;;;;;21.65;51.29;95669.09;5007843;28;20516;-82
2022/07/04 01:39:21;;;;;;;5.22;3.88;;;;;;;21.63;51.30;95685.69;4992426;28;20037;-82
2022/07/04 01:41:46;;;;;;;11.25;3.97;;;;;;;21.61;51.24;95683.22;4992241;28;20029;-81
2022/07/04 01:44:12;;;;;;;5.18;3.55;;;;;;;21.61;51.23;95685.09;5008209;28;20022;-82
2022/07/04 01:46:37;;;;;;;8.70;4.18;;;;;;;21.64;50.70;95675.59;4992437;28;20018;-82
2022/07/04 01:49:03;;;;;;;5.60;3.78;;;;;;;21.69;50.81;95679.28;5007373;28;20128;-82
2022/07/04 01:51:28;;;;;;;7.90;3.75;;;;;;;21.69;51.17;95679.28;5008895;28;20034;-81
2022/07/04 01:53:54;;;;;;;5.47;3.85;;;;;;;21.73;50.71;95679.63;5008428;28;20037;-81
2022/07/04 01:56:19;;;;;;;7.68;4.03;;;;;;;21.76;50.38;95672.84;5013066;28;20030;-81
2022/07/04 01:58:45;;;;;;;5.85;4.00;;;;;;;21.71;50.14;95676.28;5009919;28;20176;-81
2022/07/04 02:03:54;;;;;;;5.55;3.35;;;;;;;21.47;51.13;95677.16;5008853;28;20048;-81
2022/07/04 02:06:19;;;;;;;7.10;3.70;;;;;;;21.44;50.86;95679.56;5007337;28;20228;-81
2022/07/04 02:13:00;;;;;;;5.43;4.50;;;;;;;21.45;52.70;95678.50;5007361;28;20072;-81
2022/07/04 02:14:14;;;;;;;7.35;4.63;;;;;;;21.49;52.42;95682.38;5009378;28;20034;-82
2022/07/04 02:16:39;;;;;;;7.68;4.22;;;;;;;21.58;52.87;95689.16;5008047;28;20618;-82
2022/07/04 02:19:05;;;;;;;5.38;4.43;;;;;;;21.62;53.01;95684.03;5007186;28;20045;-82
2022/07/04 02:21:30;;;;;;;7.18;4.53;;;;;;;21.64;53.61;95689.22;5009666;28;20041;-81
2022/07/04 02:23:56;;;;;;;7.18;4.50;;;;;;;21.59;53.25;95690.81;5006281;28;20038;-81
2022/07/04 02:26:22;;;;;;;8.85;4.95;;;;;;;21.58;53.99;95686.44;5009485;28;20018;-81
2022/07/04 02:28:47;;;;;;;6.35;5.10;;;;;;;21.48;53.56;95691.66;5006738;28;20037;-81
2022/07/04 02:31:13;;;;;;;14.98;6.03;;;;;;;21.40;55.24;95694.75;5007758;28;20148;-81
2022/07/04 02:33:38;;;;;;;9.35;6.00;;;;;;;21.38;54.40;95689.53;4990439;28;20052;-81
2022/07/04 02:36:04;;;;;;;8.18;5.82;;;;;;;21.41;54.98;95689.06;5007002;28;20045;-82
2022/07/04 02:38:29;;;;;;;9.30;6.40;;;;;;;21.41;55.31;95689.06;5009014;28;20042;-81
2022/07/04 02:40:55;;;;;;;15.15;6.90;;;;;;;21.39;55.89;95682.19;5006365;28;20036;-81
2022/07/04 02:43:20;;;;;;;14.32;6.40;;;;;;;21.40;55.48;95692.84;5008905;28;20488;-81
2022/07/04 02:45:46;;;;;;;11.43;6.85;;;;;;;21.35;55.38;95693.59;5006883;28;20057;-82
2022/07/04 02:48:12;;;;;;;6.43;5.78;;;;;;;21.27;56.23;95702.13;4991568;28;20022;-82
2022/07/04 02:50:37;;;;;;;9.45;5.82;;;;;;;21.29;56.42;95700.00;5006561;28;20084;-83
2022/07/04 02:53:03;;;;;;;11.02;6.85;;;;;;;21.29;56.78;95702.72;5007531;28;20018;-82
2022/07/04 02:55:28;;;;;;;12.13;6.50;;;;;;;21.28;56.32;95711.16;5008594;28;20037;-83
2022/07/04 02:57:54;;;;;;;7.72;6.72;;;;;;;21.27;55.94;95712.19;4990089;28;20500;-83
2022/07/04 03:00:19;;;;;;;13.20;6.70;;;;;;;21.22;56.31;95710.19;5008323;28;20436;-82
2022/07/04 03:02:45;;;;;;;9.43;6.75;;;;;;;21.22;56.46;95708.28;5007228;28;20397;-81
2022/07/04 03:05:10;;;;;;;8.05;6.82;;;;;;;21.22;56.30;95718.38;5007457;28;20029;-81
2022/07/04 03:07:35;;;;;;;10.98;7.57;;;;;;;21.19;56.29;95719.69;5005627;28;20026;-81
2022/07/04 03:10:01;;;;;;;12.25;7.00;;;;;;;21.15;56.60;95723.94;5008295;28;20092;-82
2022/07/04 03:12:26;;;;;;;8.32;7.30;;;;;;;21.15;56.45;95723.13;5006066;28;20030;-81
2022/07/04 03:14:53;;;;;;;9.07;7.03;;;;;;;21.10;56.84;95711.00;5006386;28;20042;-82
2022/07/04 03:17:19;;;;;;;10.45;7.22;;;;;;;21.07;56.83;95716.13;5007074;28;20111;-82
2022/07/04 03:19:44;;;;;;;11.98;7.03;;;;;;;21.06;57.32;95720.75;4973311;28;20081;-81
2022/07/04 03:22:09;;;;;;;8.10;7.35;;;;;;;21.08;57.41;95718.63;5006899;28;20033;-82
2022/07/04 03:24:35;;;;;;;13.45;7.50;;;;;;;21.14;57.11;95724.19;4973062;28;20471;-81
2022/07/04 03:27:00;;;;;;;12.70;6.93;;;;;;;21.10;57.27;95724.66;5023428;28;20030;-81
2022/07/04 03:29:26;;;;;;;12.23;7.68;;;;;;;21.14;57.14;95721.44;5005763;28;20029;-81
2022/07/04 03:31:51;;;;;;;10.13;7.63;;;;;;;21.10;56.98;95721.94;4990316;28;20131;-82
2022/07/04 03:34:17;;;;;;;8.52;7.15;;;;;;;21.06;57.34;95719.91;5006280;28;20413;-82
2022/07/04 03:36:42;;;;;;;9.90;7.47;;;;;;;21.06;58.22;95726.19;4974306;28;20057;-81
2022/07/04 03:39:08;;;;;;;12.43;7.22;;;;;;;21.06;57.39;95728.94;5013724;28;20060;-81
2022/07/04 03:41:33;;;;;;;9.77;7.00;;;;;;;21.09;57.29;95724.88;5005649;28;20022;-81
2022/07/04 03:43:59;;;;;;;9.98;7.57;;;;;;;21.09;57.14;95724.88;5009838;28;20409;-81
2022/07/04 03:46:24;;;;;;;10.88;7.38;;;;;;;21.11;56.42;95728.22;5004423;28;20084;-81
2022/07/04 03:48:50;;;;;;;10.20;7.95;;;;;;;21.14;57.24;95726.91;5006620;28;20036;-81
2022/07/04 03:51:15;;;;;;;8.68;6.97;;;;;;;21.15;56.62;95720.41;4988870;28;20060;-82
2022/07/04 03:53:41;;;;;;;8.18;7.32;;;;;;;21.17;56.46;95720.97;5022825;28;20037;-82
2022/07/04 03:56:08;;;;;;;19.25;8.45;;;;;;;21.14;56.93;95721.44;4989253;28;20032;-81
2022/07/04 03:58:33;;;;;;;21.42;8.18;;;;;;;21.18;57.83;95720.75;5005332;28;20026;-82
2022/07/04 04:00:59;;;;;;;9.93;7.80;;;;;;;21.26;58.23;95725.03;5009197;28;20034;-81
2022/07/04 04:06:08;;;;;;;11.38;7.80;;;;;;;21.26;57.81;95727.75;4992460;28;20076;-82
2022/07/04 04:08:34;;;;;;;13.45;8.15;;;;;;;21.30;57.33;95725.34;5004697;28;20412;-83
2022/07/04 04:10:59;;;;;;;11.13;8.95;;;;;;;21.28;57.60;95720.13;4989523;28;20033;-83
2022/07/04 04:13:25;;;;;;;10.05;8.10;;;;;;;21.30;58.05;95715.28;4988479;28;20035;-81
2022/07/04 04:15:50;;;;;;;13.63;8.02;;;;;;;21.31;57.73;95722.38;5006813;28;20497;-81
2022/07/04 04:18:16;;;;;;;12.13;7.93;;;;;;;21.38;58.02;95729.63;5006801;28;20048;-82
2022/07/04 04:20:41;;;;;;;10.35;7.85;;;;;;;21.42;57.61;95728.09;5005994;28;20419;-81
2022/07/04 04:23:06;;;;;;;13.98;7.82;;;;;;;21.51;57.66;95732.09;5006116;28;20030;-81
2022/07/04 04:25:32;;;;;;;8.00;7.15;;;;;;;21.54;56.53;95731.63;5020326;28;20528;-84
2022/07/04 04:27:57;;;;;;;12.85;7.38;;;;;;;21.61;56.32;95718.69;4989381;28;20100;-82
2022/07/04 04:30:23;;;;;;;11.43;7.28;;;;;;;21.77;55.85;95726.34;4987883;28;20030;-81
2022/07/04 04:32:48;;;;;;;9.50;7.50;;;;;;;21.82;56.08;95719.13;4988541;28;20034;-81
2022/07/04 04:35:14;;;;;;;9.23;7.43;;;;;;;21.89;55.47;95726.34;5005000;28;20033;-82
2022/07/04 04:37:39;;;;;;;9.57;6.65;;;;;;;21.85;54.44;95726.84;5006540;28;20053;-82
2022/07/04 04:40:05;;;;;;;7.95;6.32;;;;;;;21.90;54.50;95733.47;5005281;28;20037;-82
2022/07/04 04:42:31;;;;;;;8.02;6.45;;;;;;;22.02;54.75;95725.25;5004082;28;20022;-82
2022/07/04 04:44:56;;;;;;;9.43;6.38;;;;;;;22.12;54.14;95727.34;5005979;28;20029;-81
2022/07/04 04:47:21;;;;;;;10.32;6.45;;;;;;;22.18;54.05;95729.91;5004016;28;20084;-82
2022/07/04 04:49:47;;;;;;;7.78;5.70;;;;;;;22.26;52.98;95728.72;5005292;28;20469;-82
2022/07/04 04:52:12;;;;;;;10.88;6.00;;;;;;;22.40;52.17;95728.41;5004499;28;20021;-82
2022/07/04 04:54:38;;;;;;;11.70;5.35;;;;;;;22.51;51.42;95730.25;4991611;28;20065;-82
2022/07/04 04:57:04;;;;;;;8.10;4.70;;;;;;;22.50;49.82;95731.34;5011343;28;20030;-82
2022/07/04 04:59:29;;;;;;;7.57;4.25;;;;;;;22.46;49.81;95732.88;4987589;28;20109;-83
2022/07/04 05:01:55;;;;;;;8.30;4.60;;;;;;;22.40;50.17;95729.25;5006604;28;20026;-81
2022/07/04 05:04:21;;;;;;;7.18;4.40;;;;;;;22.49;50.20;95726.91;5004749;28;20045;-82
2022/07/04 05:06:46;;;;;;;7.10;4.80;;;;;;;22.55;51.05;95734.16;5006967;28;20037;-82
2022/07/04 05:09:12;;;;;;;12.35;4.50;;;;;;;22.72;50.22;95734.19;5009117;28;20034;-82
2022/07/04 05:11:37;;;;;;;8.90;4.18;;;;;;;22.84;49.94;95730.56;5008640;28;20192;-83
2022/07/04 05:14:03;;;;;;;7.40;4.40;;;;;;;22.87;49.06;95729.22;5008260;28;20041;-82
2022/07/04 05:16:28;;;;;;;5.22;3.90;;;;;;;22.88;48.57;95723.50;5007820;28;20030;-82
2022/07/04 05:18:54;;;;;;;12.20;5.00;;;;;;;23.05;48.67;95725.41;4992191;28;20148;-82
2022/07/04 05:21:19;;;;;;;6.78;4.18;;;;;;;23.25;47.36;95735.84;5007684;28;20026;-82
2022/07/04 05:23:45;;;;;;;8.32;4.35;;;;;;;23.39;47.32;95730.84;5010152;28;20026;-82
2022/07/04 05:26:10;;;;;;;11.23;4.93;;;;;;;23.36;46.90;95722.31;5007569;28;20022;-82
2022/07/04 05:28:36;;;;;;;11.55;4.03;;;;;;;23.49;45.96;95730.19;5010089;28;20026;-82
2022/07/04 05:31:01;;;;;;;8.23;4.65;;;;;;;23.67;46.21;95726.31;5009039;28;20424;-83
2022/07/04 05:33:27;;;;;;;6.85;4.20;;;;;;;23.82;46.39;95727.59;5009380;28;20033;-82
2022/07/04 05:35:52;;;;;;;12.25;4.50;;;;;;;23.97;46.68;95726.97;4991626;28;20041;-82
2022/07/04 05:38:18;;;;;;;8.75;4.47;;;;;;;24.07;47.25;95726.22;5008896;28;20088;-83
2022/07/04 05:40:43;;;;;;;10.65;4.25;;;;;;;24.13;45.88;95727.13;5008243;28;20030;-82
2022/07/04 05:43:10;;;;;;;12.43;4.55;;;;;;;24.25;45.58;95727.00;5007138;28;20030;-82
2022/07/04 05:45:35;;;;;;;10.98;4.43;;;;;;;24.25;45.66;95729.75;5008332;28;20042;-83
2022/07/04 05:48:01;;;;;;;8.70;4.18;;;;;;;24.07;45.47;95729.81;5007229;28;20030;-83
2022/07/04 05:50:26;;;;;;;13.10;4.38;;;;;;;24.01;45.77;95714.41;5008193;28;20026;-85
2022/07/04 05:52:52;;;;;;;11.57;4.97;;;;;;;23.93;46.45;95720.31;5008818;28;20116;-83
2022/07/04 05:55:17;;;;;;;17.08;4.60;;;;;;;24.07;45.97;95712.53;5007813;28;20405;-83
2022/07/04 05:57:42;;;;;;;12.02;4.28;;;;;;;24.20;45.90;95714.06;5008098;28;20026;-83
2022/07/04 06:00:08;;;;;;;10.65;4.38;;;;;;;24.42;45.29;95724.19;4990658;28;20408;-83
2022/07/04 06:02:34;;;;;;;12.32;3.90;;;;;;;24.50;44.33;95714.66;5008323;28;20099;-83
2022/07/04 06:04:59;;;;;;;28.98;6.30;;;;;;;24.72;44.50;95722.81;4990405;28;20060;-84
2022/07/04 06:07:25;;;;;;;19.58;5.00;;;;;;;24.75;43.74;95718.72;5009569;28;20034;-82
2022/07/04 06:09:50;;;;;;;18.73;4.63;;;;;;;24.89;43.29;95721.88;5006846;28;20025;-83
2022/07/04 06:12:16;;;;;;;14.85;4.82;;;;;;;25.04;43.09;95718.44;5009058;28;20084;-82
2022/07/04 06:14:41;;;;;;;16.08;3.80;;;;;;;25.14;42.97;95718.50;4991080;28;20467;-84
2022/07/04 06:17:07;;;;;;;5.47;4.00;;;;;;;25.17;43.34;95722.63;5006973;28;20068;-84
2022/07/04 06:19:32;;;;;;;7.53;3.83;;;;;;;24.85;40.36;95720.72;5007934;28;20022;-83
2022/07/04 06:21:57;;;;;;;10.05;3.97;;;;;;;24.64;42.06;95720.53;5007857;28;20432;-83
2022/07/04 06:24:23;;;;;;;11.77;4.97;;;;;;;24.55;43.82;95715.53;5008290;28;20312;-83
2022/07/04 06:26:49;;;;;;;11.18;4.00;;;;;;;24.49;43.61;95713.03;5006082;28;20022;-83
2022/07/04 06:29:14;;;;;;;7.60;4.00;;;;;;;24.63;42.52;95713.41;4991550;28;20417;-83
2022/07/04 06:31:39;;;;;;;10.73;3.70;;;;;;;24.74;42.88;95711.56;5007017;28;20044;-83
2022/07/04 06:36:49;;;;;;;11.50;3.90;;;;;;;24.93;41.36;95701.06;5007496;28;20080;-83
2022/07/04 06:39:14;;;;;;;8.63;3.88;;;;;;;25.00;41.13;95709.91;4990100;28;20030;-83
2022/07/04 06:41:40;;;;;;;7.13;3.80;;;;;;;25.12;41.26;95706.97;5007868;28;20034;-82
2022/07/04 06:44:05;;;;;;;9.48;4.68;;;;;;;25.20;40.93;95713.88;5005890;28;20481;-83
2022/07/04 06:46:30;;;;;;;8.13;4.13;;;;;;;25.33;41.51;95706.28;5007679;28;20736;-83
2022/07/04 06:48:56;;;;;;;7.80;3.97;;;;;;;25.42;41.00;95701.94;5006032;28;20182;-83
2022/07/04 06:51:22;;;;;;;8.85;3.90;;;;;;;25.48;40.45;95700.88;4990551;28;20034;-83
2022/07/04 06:53:48;;;;;;;9.40;4.35;;;;;;;25.48;41.08;95700.88;5007084;28;20033;-82
2022/07/04 06:56:13;;;;;;;10.82;4.05;;;;;;;25.60;41.01;95691.59;4989587;28;20022;-83
2022/07/04 06:58:39;;;;;;;8.25;4.18;;;;;;;25.78;40.14;95693.91;5009201;28;20525;-83
2022/07/04 07:01:04;;;;;;;9.68;3.58;;;;;;;25.78;41.50;95693.91;5005705;28;20025;-84
2022/07/04 07:03:30;;;;;;;10.05;3.90;;;;;;;25.92;41.44;95688.72;5009113;28;20042;-83
2022/07/04 07:05:56;;;;;;;6.43;3.60;;;;;;;25.86;41.15;95689.81;5005858;28;20028;-82
2022/07/04 07:08:22;;;;;;;4.82;3.72;;;;;;;25.94;39.76;95685.72;5007475;28;20096;-82
2022/07/04 07:10:47;;;;;;;6.72;3.90;;;;;;;26.04;39.69;95693.16;5006433;28;20038;-83
2022/07/04 07:13:14;;;;;;;6.65;3.90;;;;;;;26.00;39.68;95698.41;5006419;28;20037;-83
2022/07/04 07:15:39;;;;;;;7.45;4.20;;;;;;;26.02;39.51;95684.38;5007047;28;20124;-82
2022/07/04 07:18:05;;;;;;;6.03;4.20;;;;;;;26.19;39.24;95689.63;5005887;28;20481;-82
2022/07/04 07:20:31;;;;;;;8.27;4.15;;;;;;;26.39;38.87;95685.31;4990752;28;20116;-82
2022/07/04 07:22:56;;;;;;;5.88;3.67;;;;;;;26.21;39.17;95684.72;4989365;28;20420;-83
2022/07/04 07:25:21;;;;;;;4.55;3.63;;;;;;;25.85;39.49;95681.84;4990636;28;20025;-84
2022/07/04 07:27:47;;;;;;;8.88;3.90;;;;;;;26.19;40.27;95686.06;5007459;28;20037;-83
2022/07/04 07:30:13;;;;;;;11.05;3.92;;;;;;;26.28;40.71;95679.75;4989709;28;20029;-84
2022/07/04 07:32:38;;;;;;;9.27;3.95;;;;;;;26.09;39.43;95684.09;5006003;28;20084;-82
2022/07/04 07:35:04;;;;;;;5.90;3.70;;;;;;;26.13;40.56;95674.25;5007267;28;20034;-82
2022/07/04 07:37:29;;;;;;;15.00;4.15;;;;;;;25.80;40.73;95686.22;5006103;28;20050;-82
2022/07/04 07:39:55;;;;;;;13.57;4.47;;;;;;;25.61;40.82;95685.84;4988662;28;20080;-82
2022/07/04 07:42:20;;;;;;;7.10;4.05;;;;;;;25.97;39.52;95682.41;5006383;28;20041;-83
2022/07/04 07:44:46;;;;;;;7.70;4.00;;;;;;;25.85;41.33;95677.19;5004901;28;20041;-83
2022/07/04 07:47:15;;;;;;;8.65;3.50;;;;;;;25.90;40.88;95676.38;5007423;28;20037;-84
2022/07/04 07:49:44;;;;;;;7.00;3.72;;;;;;;26.29;39.76;95681.41;5022097;28;20038;-85
2022/07/04 07:52:10;;;;;;;11.32;4.20;;;;;;;26.51;39.30;95665.78;5004935;28;20030;-83
2022/07/04 07:54:35;;;;;;;13.63;4.15;;;;;;;26.49;41.08;95668.81;4990700;28;20041;-83
2022/07/04 07:57:01;;;;;;;9.38;3.45;;;;;;;26.68;39.29;95672.97;5005665;28;20088;-82
2022/07/04 07:59:26;;;;;;;12.95;3.75;;;;;;;26.81;38.71;95674.34;4989820;28;20037;-83
2022/07/04 08:01:52;;;;;;;11.50;4.40;;;;;;;26.88;39.12;95667.44;4988528;28;20026;-83
2022/07/04 08:04:37;;;;;;;7.25;3.63;;;;;;;26.95;39.88;95669.94;4989990;28;20041;-83
2022/07/04 08:07:08;;;;;;;10.90;3.80;;;;;;;26.97;39.20;95667.69;5005813;28;20495;-85
2022/07/04 08:09:34;;;;;;;9.38;3.90;;;;;;;27.15;38.41;95671.84;5004958;28;20624;-82
2022/07/04 08:11:59;;;;;;;10.18;4.05;;;;;;;26.44;39.34;95659.75;5007012;28;20034;-83
2022/07/04 08:14:25;;;;;;;7.63;4.05;;;;;;;26.16;40.34;95654.47;5004859;28;20022;-84
2022/07/04 08:16:51;;;;;;;9.73;3.45;;;;;;;26.06;40.76;95649.75;5005913;28;20501;-83
2022/07/04 08:19:16;;;;;;;8.45;3.75;;;;;;;26.55;39.97;95655.91;5004106;28;20551;-83
2022/07/04 08:21:41;;;;;;;8.02;4.32;;;;;;;26.79;38.72;95650.66;5022310;28;20029;-84
2022/07/04 08:24:07;;;;;;;12.55;4.57;;;;;;;26.92;39.21;95656.72;5007146;28;20475;-83
2022/07/04 08:26:32;;;;;;;8.38;4.28;;;;;;;26.96;39.02;95649.56;5005167;28;20041;-83
2022/07/04 08:28:59;;;;;;;9.90;3.80;;;;;;;26.96;39.70;95648.72;5022067;28;20037;-83
2022/07/04 08:31:25;;;;;;;6.55;3.78;;;;;;;26.91;38.27;95652.31;5021634;28;20030;-84
2022/07/04 08:33:51;;;;;;;7.95;4.40;;;;;;;26.96;40.17;95646.81;4990393;28;20069;-83
2022/07/04 08:36:16;;;;;;;6.72;4.35;;;;;;;27.01;39.58;95638.56;5006056;28;20050;-82
2022/07/04 08:38:41;;;;;;;8.32;4.28;;;;;;;27.06;40.71;95643.25;5008551;28;20060;-82
2022/07/04 08:41:07;;;;;;;9.73;3.90;;;;;;;27.23;39.85;95642.91;4989856;28;20108;-83
2022/07/04 08:43:34;;;;;;;11.85;4.65;;;;;;;27.34;40.08;95640.16;4994665;28;20108;-82
2022/07/04 08:45:59;;;;;;;12.80;4.30;;;;;;;27.32;39.29;95640.44;5009566;28;20029;-82
2022/07/04 08:48:28;;;;;;;7.45;4.15;;;;;;;27.26;39.93;95645.13;5010177;28;20021;-83
2022/07/04 08:51:17;;;;;;;9.15;4.35;;;;;;;27.21;39.84;95636.91;5010666;28;20025;-84
2022/07/04 08:53:51;;;;;;;7.43;4.18;;;;;;;27.09;39.98;95642.69;5007614;28;20143;-83
2022/07/04 08:59:02;;;;;;;7.35;4.20;;;;;;;26.98;40.50;95630.00;5009171;28;20033;-84
2022/07/04 09:01:28;;;;;;;8.18;4.57;;;;;;;27.33;40.72;95635.72;4992019;28;20030;-84
2022/07/04 09:03:53;;;;;;;8.35;4.55;;;;;;;27.52;39.84;95633.19;4992751;28;20026;-84
2022/07/04 09:06:18;;;;;;;7.70;4.00;;;;;;;27.40;40.88;95639.03;5008369;28;20030;-84
2022/07/04 09:08:44;;;;;;;8.38;4.78;;;;;;;27.52;40.83;95633.19;5009287;28;20026;-84
2022/07/04 09:11:09;;;;;;;7.30;4.88;;;;;;;27.76;39.85;95633.41;5007936;28;20033;-83
2022/07/04 09:13:35;;;;;;;7.78;4.45;;;;;;;27.82;40.02;95625.09;4992856;28;20034;-84
2022/07/04 09:16:01;;;;;;;6.32;4.18;;;;;;;27.89;40.75;95631.16;5008780;28;20030;-84
2022/07/04 09:18:31;;;;;;;8.55;5.03;;;;;;;28.06;39.86;95629.94;4976355;28;20032;-83
2022/07/04 09:20:59;;;;;;;7.47;4.82;;;;;;;28.07;41.17;95626.09;5010670;28;20026;-84
2022/07/04 09:23:35;;;;;;;10.27;5.30;;;;;;;28.30;40.59;95627.28;5008073;28;20072;-84
2022/07/04 09:26:06;;;;;;;5.53;4.35;;;;;;;28.43;40.01;95625.03;5009304;28;20036;-84
2022/07/04 09:28:32;;;;;;;11.48;4.78;;;;;;;28.42;38.18;95621.47;5009013;28;20585;-84
2022/07/04 09:30:58;;;;;;;9.48;4.60;;;;;;;28.47;39.04;95624.16;5008826;28;20034;-84
2022/07/04 09:33:43;;;;;;;11.85;4.82;;;;;;;28.52;39.82;95614.22;5008126;28;20279;-84
2022/07/04 09:36:16;;;;;;;7.10;4.47;;;;;;;28.55;39.84;95616.41;4976507;28;20042;-82
2022/07/04 09:38:42;;;;;;;5.85;4.38;;;;;;;28.58;39.00;95611.13;5008643;28;20096;-83
2022/07/04 09:41:29;;;;;;;9.18;4.57;;;;;;;28.67;40.35;95605.78;4991043;28;20026;-84
2022/07/04 09:44:05;;;;;;;10.25;4.65;;;;;;;28.73;37.02;95603.81;5008971;28;20057;-83
2022/07/04 09:46:31;;;;;;;8.07;4.55;;;;;;;28.84;39.30;95594.31;5009410;28;20037;-84
2022/07/04 09:48:56;;;;;;;6.85;4.65;;;;;;;28.92;38.01;95600.34;5007790;28;20065;-84
2022/07/04 09:51:43;;;;;;;8.88;4.45;;;;;;;28.99;37.48;95598.91;5010192;28;20489;-84
2022/07/04 09:54:13;;;;;;;6.22;3.92;;;;;;;29.07;36.57;95596.59;5007072;28;20034;-83
2022/07/04 09:56:49;;;;;;;6.10;4.47;;;;;;;29.06;35.96;95595.81;5008845;28;20049;-83
2022/07/04 09:59:15;;;;;;;5.28;4.40;;;;;;;29.13;40.54;95598.22;4991558;28;20026;-84
2022/07/04 10:01:41;;;;;;;5.15;4.60;;;;;;;29.16;37.30;95597.63;4991909;28;20096;-83
2022/07/04 10:04:07;;;;;;;7.00;5.10;;;;;;;29.16;36.56;95602.31;5009143;28;20026;-84
2022/07/04 10:06:33;;;;;;;9.05;5.60;;;;;;;29.04;36.11;95605.47;5007702;28;20114;-84
2022/07/04 10:09:12;;;;;;;5.72;5.13;;;;;;;28.95;36.41;95602.50;4991572;28;20121;-83
2022/07/04 10:11:39;;;;;;;9.10;4.85;;;;;;;28.95;37.27;95594.22;4990433;28;20050;-84
2022/07/04 10:14:08;;;;;;;7.40;5.00;;;;;;;29.01;37.62;95593.09;4991771;28;20034;-83
2022/07/04 10:16:34;;;;;;;9.60;5.80;;;;;;;29.14;38.30;95590.75;5007084;28;20030;-84
2022/07/04 10:19:00;;;;;;;9.75;5.60;;;;;;;29.15;39.14;95587.69;5007418;28;20107;-82
2022/07/04 10:21:25;;;;;;;9.27;5.68;;;;;;;28.98;36.43;95588.16;5007728;28;20513;-82
2022/07/04 10:23:51;;;;;;;7.90;5.30;;;;;;;28.96;37.78;95591.22;4990349;28;20038;-83
2022/07/04 10:26:20;;;;;;;6.53;5.10;;;;;;;28.93;37.62;95585.41;5007962;28;20022;-83
2022/07/04 10:28:47;;;;;;;6.95;4.80;;;;;;;28.96;37.81;95584.84;5006579;28;20026;-82
2022/07/04 10:31:13;;;;;;;5.97;5.18;;;;;;;29.02;38.67;95589.19;5009047;28;20394;-83
2022/07/04 10:33:38;;;;;;;6.03;5.07;;;;;;;28.99;38.70;95595.31;4990201;28;20084;-84
2022/07/04 10:36:13;;;;;;;5.80;5.25;;;;;;;29.00;38.40;95583.97;5008385;28;20050;-84
2022/07/04 10:38:52;;;;;;;9.30;5.38;;;;;;;29.03;38.16;95579.81;5007562;28;20049;-82
2022/07/04 10:41:21;;;;;;;7.45;5.20;;;;;;;29.11;38.54;95586.63;5006526;28;20080;-83
2022/07/04 10:44:07;;;;;;;6.00;5.40;;;;;;;29.20;37.84;95584.03;5007858;28;20413;-83
2022/07/04 10:46:34;;;;;;;5.95;5.35;;;;;;;29.23;37.50;95572.41;4990582;28;20026;-83
2022/07/04 10:49:15;;;;;;;6.53;5.32;;;;;;;29.32;38.09;95580.88;5008439;28;20036;-84
2022/07/04 10:51:42;;;;;;;16.38;5.60;;;;;;;29.28;37.78;95577.06;5007135;28;20069;-83
2022/07/04 10:54:36;;;;;;;5.97;5.18;;;;;;;29.28;37.22;95572.34;5006117;28;20662;-85
2022/07/04 10:57:14;;;;;;;7.03;5.40;;;;;;;29.24;37.07;95563.81;5006296;28;20046;-83
2022/07/04 10:59:41;;;;;;;6.07;5.13;;;;;;;29.14;37.76;95561.19;5006127;28;20117;-83
2022/07/04 11:02:06;;;;;;;9.32;5.55;;;;;;;29.30;37.03;95563.78;5007101;28;20113;-82
2022/07/04 11:04:47;;;;;;;7.50;5.43;;;;;;;29.32;38.19;95556.84;5007954;28;20082;-85
2022/07/04 11:07:14;;;;;;;5.93;5.03;;;;;;;29.35;38.50;95547.16;5007418;28;20164;-85
2022/07/04 11:09:40;;;;;;;9.05;5.53;;;;;;;29.53;38.11;95555.75;5007064;28;20037;-84
2022/07/04 11:12:06;;;;;;;5.82;5.25;;;;;;;29.57;36.64;95556.78;5005433;28;20038;-83
2022/07/04 11:14:37;;;;;;;7.03;5.22;;;;;;;29.58;36.48;95550.19;5007163;28;20586;-84
2022/07/04 11:17:19;;;;;;;7.90;5.88;;;;;;;29.69;38.06;95553.63;5007141;28;20534;-85
2022/07/04 11:19:44;;;;;;;7.47;5.35;;;;;;;29.83;36.57;95546.25;5006229;28;20026;-84
2022/07/04 11:22:10;;;;;;;6.65;5.10;;;;;;;29.90;37.67;95545.88;5007625;28;20048;-84
2022/07/04 11:24:36;;;;;;;6.05;5.40;;;;;;;29.79;37.21;95544.38;5005965;28;20037;-84
2022/07/04 11:27:02;;;;;;;8.23;5.28;;;;;;;29.79;36.46;95545.22;5006916;28;20088;-84
2022/07/04 11:29:29;;;;;;;10.43;5.78;;;;;;;29.83;36.41;95543.50;5005280;28;20041;-83
2022/07/04 11:31:54;;;;;;;6.88;5.40;;;;;;;29.93;36.41;95541.69;5008163;28;20538;-83
2022/07/04 11:34:20;;;;;;;5.88;5.22;;;;;;;29.97;37.20;95543.53;4988859;28;20033;-83
2022/07/04 11:36:46;;;;;;;7.18;4.70;;;;;;;30.02;36.48;95536.31;5006208;28;20042;-84
2022/07/04 11:39:14;;;;;;;6.03;5.25;;;;;;;30.11;36.68;95537.28;5005784;28;20034;-85
2022/07/04 11:47:16;;;;;;;7.15;5.90;;;;;;;30.51;36.34;95519.47;4991776;28;20029;-84
2022/07/04 11:49:51;;;;;;;7.68;5.40;;;;;;;30.55;35.92;95515.00;5007240;28;20036;-84